createdAt,value
2023-09-13T00:01:54.280Z,16.10
2023-09-13T00:04:22.398Z,15.77
2023-09-13T00:06:50.764Z,15.60
2023-09-13T00:09:19.449Z,14.00
2023-09-13T00:11:47.436Z,15.63
2023-09-13T00:14:15.574Z,15.73
2023-09-13T00:16:43.622Z,15.60
2023-09-13T00:19:14.118Z,17.40
2023-09-13T00:21:44.189Z,17.40
2023-09-13T00:24:12.360Z,13.47
2023-09-13T00:26:40.426Z,14.67
2023-09-13T00:29:08.404Z,15.87
2023-09-13T00:31:36.498Z,16.27
2023-09-13T00:34:04.580Z,15.33
2023-09-13T00:36:33.976Z,14.63
2023-09-13T00:39:04.027Z,15.00
2023-09-13T00:41:33.139Z,13.37
2023-09-13T00:44:01.120Z,14.73
2023-09-13T00:46:29.870Z,14.33
2023-09-13T00:48:58.670Z,14.73
2023-09-13T00:51:27.094Z,15.97
2023-09-13T00:53:58.206Z,14.90
2023-09-13T00:56:28.215Z,17.23
2023-09-13T00:58:56.872Z,16.10
2023-09-13T01:01:24.975Z,16.23
2023-09-13T01:03:53.210Z,16.70
2023-09-13T01:06:21.294Z,16.90
2023-09-13T01:08:49.364Z,15.90
2023-09-13T01:11:18.877Z,18.43
2023-09-13T01:13:47.050Z,18.27
2023-09-13T01:16:31.686Z,17.50
2023-09-13T01:19:07.644Z,17.77
2023-09-13T01:22:07.178Z,18.23
2023-09-13T01:24:54.279Z,17.60
2023-09-13T01:27:39.046Z,17.20
2023-09-13T01:30:10.622Z,14.83
2023-09-13T01:32:38.704Z,14.47
2023-09-13T01:35:07.140Z,15.10
2023-09-13T01:37:35.331Z,15.77
2023-09-13T01:40:06.998Z,18.33
2023-09-13T01:42:37.194Z,20.90
2023-09-13T01:45:07.832Z,14.90
2023-09-13T01:47:37.944Z,16.80
2023-09-13T01:50:07.618Z,15.83
2023-09-13T01:52:35.981Z,17.43
2023-09-13T01:55:08.031Z,15.90
2023-09-13T01:57:36.248Z,15.63
2023-09-13T02:00:06.029Z,15.43
2023-09-13T02:02:34.200Z,16.40
2023-09-13T02:05:04.659Z,15.23
2023-09-13T02:07:33.452Z,16.87
2023-09-13T02:10:01.602Z,17.00
2023-09-13T02:12:29.693Z,17.50
2023-09-13T02:14:57.700Z,19.63
2023-09-13T02:17:24.861Z,19.37
2023-09-13T02:19:53.180Z,19.27
2023-09-13T02:22:22.592Z,19.10
2023-09-13T02:24:50.623Z,21.20
2023-09-13T02:27:18.608Z,18.90
2023-09-13T02:29:46.605Z,20.13
2023-09-13T02:32:14.650Z,21.47
2023-09-13T02:34:45.484Z,20.27
2023-09-13T02:37:13.487Z,16.90
2023-09-13T02:39:44.250Z,17.20
2023-09-13T02:42:12.415Z,18.67
2023-09-13T02:44:40.440Z,18.50
2023-09-13T02:47:08.497Z,16.63
2023-09-13T02:49:36.544Z,16.93
2023-09-13T02:52:04.892Z,17.90
2023-09-13T02:54:33.016Z,17.47
2023-09-13T02:57:02.965Z,17.27
2023-09-13T02:59:31.015Z,17.37
2023-09-13T03:01:59.183Z,17.40
2023-09-13T03:04:27.408Z,20.27
2023-09-13T03:06:55.554Z,23.10
2023-09-13T03:09:23.646Z,19.37
2023-09-13T03:11:51.595Z,17.20
2023-09-13T03:14:21.046Z,19.33
2023-09-13T03:16:49.031Z,17.50
2023-09-13T03:19:17.011Z,18.30
2023-09-13T03:21:46.062Z,17.13
2023-09-13T03:24:14.104Z,19.30
2023-09-13T03:26:42.348Z,18.70
2023-09-13T03:29:10.599Z,21.53
2023-09-13T03:31:40.125Z,21.00
2023-09-13T03:34:08.302Z,20.87
2023-09-13T03:36:36.462Z,19.03
2023-09-13T03:39:05.239Z,19.17
2023-09-13T03:41:33.883Z,16.23
2023-09-13T03:44:03.549Z,18.03
2023-09-13T03:46:31.554Z,18.00
2023-09-13T03:49:01.392Z,16.87
2023-09-13T03:51:29.368Z,20.67
2023-09-13T03:53:59.416Z,18.70
2023-09-13T03:56:27.440Z,19.27
2023-09-13T03:58:56.443Z,18.50
2023-09-13T04:01:25.389Z,19.83
2023-09-13T04:03:53.666Z,18.90
2023-09-13T04:06:27.312Z,18.87
2023-09-13T04:08:55.409Z,19.83
2023-09-13T04:11:23.374Z,18.97
2023-09-13T04:13:51.398Z,18.77
2023-09-13T04:16:19.401Z,21.87
2023-09-13T04:18:47.598Z,21.73
2023-09-13T04:21:15.645Z,22.00
2023-09-13T04:23:45.128Z,21.33
2023-09-13T04:26:14.400Z,20.83
2023-09-13T04:28:42.755Z,18.13
2023-09-13T04:31:10.792Z,20.03
2023-09-13T04:33:52.357Z,18.40
2023-09-13T04:36:20.600Z,19.93
2023-09-13T04:38:50.514Z,19.80
2023-09-13T04:41:19.083Z,17.30
2023-09-13T04:43:47.623Z,18.73
2023-09-13T04:46:16.166Z,17.93
2023-09-13T04:48:44.255Z,18.33
2023-09-13T04:51:12.842Z,18.63
2023-09-13T04:53:40.940Z,20.03
2023-09-13T04:56:10.573Z,20.27
2023-09-13T04:58:39.326Z,20.07
2023-09-13T05:01:07.890Z,16.07
2023-09-13T05:03:36.231Z,18.17
2023-09-13T05:06:06.888Z,17.00
2023-09-13T05:08:35.795Z,22.63
2023-09-13T05:11:04.388Z,20.37
2023-09-13T05:13:34.324Z,19.20
2023-09-13T05:16:02.497Z,20.03
2023-09-13T05:18:30.609Z,22.37
2023-09-13T05:20:58.647Z,19.47
2023-09-13T05:23:26.652Z,21.10
2023-09-13T05:25:56.879Z,20.07
2023-09-13T05:28:25.608Z,19.37
2023-09-13T05:30:55.647Z,19.67
2023-09-13T05:33:25.027Z,22.10
2023-09-13T05:35:53.245Z,18.60
2023-09-13T05:38:21.232Z,19.87
2023-09-13T05:40:49.246Z,22.23
2023-09-13T05:43:17.294Z,21.60
2023-09-13T05:45:45.672Z,21.43
2023-09-13T05:48:15.327Z,23.27
2023-09-13T05:50:43.385Z,21.90
2023-09-13T05:53:11.328Z,21.80
2023-09-13T05:55:39.473Z,23.37
2023-09-13T05:58:07.519Z,21.90
2023-09-13T06:00:35.470Z,21.50
2023-09-13T06:03:03.532Z,23.23
2023-09-13T06:05:32.933Z,20.83
2023-09-13T06:08:00.897Z,23.07
2023-09-13T06:10:28.977Z,22.97
2023-09-13T06:12:57.186Z,21.10
2023-09-13T06:15:25.197Z,23.17
2023-09-13T06:17:54.988Z,23.53
2023-09-13T06:20:23.100Z,23.73
2023-09-13T06:22:52.535Z,21.67
2023-09-13T06:25:20.772Z,22.40
2023-09-13T06:27:48.892Z,21.90
2023-09-13T06:30:16.952Z,21.97
2023-09-13T06:32:45.558Z,21.57
2023-09-13T06:35:16.688Z,23.57
2023-09-13T06:37:47.196Z,22.40
2023-09-13T06:40:17.735Z,21.50
2023-09-13T06:45:26.740Z,21.03
2023-09-13T06:47:56.187Z,21.20
2023-09-13T06:53:18.561Z,21.13
2023-09-13T06:55:48.020Z,21.97
2023-09-13T06:58:18.632Z,18.87
2023-09-13T07:03:22.561Z,19.17
2023-09-13T07:05:52.280Z,21.17
2023-09-13T07:08:20.293Z,21.83
2023-09-13T07:10:49.693Z,19.07
2023-09-13T07:13:17.713Z,20.23
2023-09-13T07:15:45.712Z,18.60
2023-09-13T07:18:13.878Z,19.50
2023-09-13T07:20:41.929Z,18.47
2023-09-13T07:23:10.318Z,17.50
2023-09-13T07:25:38.556Z,19.57
2023-09-13T07:28:08.158Z,18.10
2023-09-13T07:30:36.249Z,18.53
2023-09-13T07:33:05.249Z,19.00
2023-09-13T07:35:33.278Z,16.80
2023-09-13T07:38:01.318Z,16.90
2023-09-13T07:40:29.299Z,15.10
2023-09-13T07:42:57.298Z,14.90
2023-09-13T07:45:26.797Z,15.47
2023-09-13T07:47:54.855Z,14.23
2023-09-13T07:50:30.927Z,14.07
2023-09-13T07:55:30.502Z,15.13
2023-09-13T07:57:58.535Z,13.90
2023-09-13T08:00:27.969Z,13.90
2023-09-13T08:02:56.670Z,13.40
2023-09-13T08:05:24.773Z,15.33
2023-09-13T08:07:53.990Z,16.17
2023-09-13T08:10:23.039Z,15.30
2023-09-13T08:12:51.432Z,14.30
2023-09-13T08:15:22.668Z,14.70
2023-09-13T08:17:57.140Z,14.40
2023-09-13T08:20:25.390Z,13.43
2023-09-13T08:22:53.350Z,13.47
2023-09-13T08:25:21.353Z,12.77
2023-09-13T08:27:49.502Z,13.37
2023-09-13T08:30:19.913Z,10.57
2023-09-13T08:32:48.025Z,12.17
2023-09-13T08:35:17.595Z,11.17
2023-09-13T08:37:45.581Z,11.37
2023-09-13T08:40:14.134Z,12.60
2023-09-13T08:42:42.624Z,12.53
2023-09-13T08:45:11.958Z,10.13
2023-09-13T08:47:57.294Z,10.47
2023-09-13T08:50:30.075Z,9.67
2023-09-13T08:53:01.490Z,9.63
2023-09-13T08:55:30.127Z,9.57
2023-09-13T08:57:59.178Z,9.70
2023-09-13T09:00:30.728Z,9.00
2023-09-13T09:03:04.036Z,8.93
2023-09-13T09:05:34.537Z,8.57
2023-09-13T09:08:04.264Z,8.53
2023-09-13T09:10:33.335Z,9.63
2023-09-13T09:13:03.033Z,9.30
2023-09-13T09:15:33.930Z,9.47
2023-09-13T09:18:06.524Z,9.90
2023-09-13T09:20:39.181Z,9.30
2023-09-13T09:23:08.804Z,9.60
2023-09-13T09:25:40.248Z,9.57
2023-09-13T09:28:08.495Z,8.27
2023-09-13T09:30:36.524Z,8.90
2023-09-13T09:33:05.121Z,9.33
2023-09-13T09:35:33.307Z,8.17
2023-09-13T09:38:02.731Z,8.63
2023-09-13T09:40:38.289Z,8.43
2023-09-13T09:43:06.532Z,9.50
2023-09-13T09:45:34.679Z,7.40
2023-09-13T09:48:03.473Z,8.10
2023-09-13T09:50:33.789Z,8.00
2023-09-13T09:53:10.138Z,9.03
2023-09-13T09:55:38.712Z,9.33
2023-09-13T09:58:06.994Z,8.77
2023-09-13T10:00:46.670Z,8.50
2023-09-13T10:03:19.196Z,9.20
2023-09-13T10:05:55.016Z,8.40
2023-09-13T10:11:17.941Z,10.03
2023-09-13T10:13:46.971Z,9.47
2023-09-13T10:16:16.689Z,8.13
2023-09-13T10:18:49.742Z,7.80
2023-09-13T10:21:22.062Z,8.70
2023-09-13T10:23:54.910Z,8.10
2023-09-13T10:26:26.164Z,8.90
2023-09-13T10:28:58.376Z,7.70
2023-09-13T10:31:30.232Z,7.03
2023-09-13T10:34:06.571Z,7.00
2023-09-13T10:36:39.319Z,7.93
2023-09-13T10:39:13.723Z,8.20
2023-09-13T10:41:51.468Z,7.67
2023-09-13T10:44:20.692Z,7.67
2023-09-13T10:46:49.334Z,6.80
2023-09-13T10:49:17.488Z,7.77
2023-09-13T10:51:45.988Z,8.43
2023-09-13T10:54:16.308Z,7.87
2023-09-13T10:56:46.201Z,6.63
2023-09-13T10:59:18.470Z,7.57
2023-09-13T11:01:48.114Z,7.77
2023-09-13T11:04:16.839Z,6.70
2023-09-13T11:06:45.974Z,7.23
2023-09-13T11:09:15.371Z,8.03
2023-09-13T11:11:49.635Z,7.60
2023-09-13T11:14:20.510Z,7.00
2023-09-13T11:16:48.820Z,6.47
2023-09-13T11:19:17.220Z,6.60
2023-09-13T11:21:51.116Z,6.27
2023-09-13T11:24:54.014Z,7.93
2023-09-13T11:27:27.301Z,7.00
2023-09-13T11:30:00.141Z,7.60
2023-09-13T11:32:32.187Z,7.00
2023-09-13T11:35:01.944Z,6.60
2023-09-13T11:37:33.502Z,7.47
2023-09-13T11:40:12.798Z,6.47
2023-09-13T11:45:32.272Z,6.80
2023-09-13T11:48:03.828Z,6.30
2023-09-13T11:50:48.132Z,6.03
2023-09-13T11:53:21.384Z,5.93
2023-09-13T11:56:10.393Z,5.97
2023-09-13T11:58:57.661Z,5.47
2023-09-13T12:01:29.833Z,6.33
2023-09-13T12:06:44.696Z,6.23
2023-09-13T12:09:20.489Z,5.43
2023-09-13T12:11:56.914Z,6.53
2023-09-13T12:14:40.783Z,6.40
2023-09-13T12:17:15.878Z,6.20
2023-09-13T12:19:47.039Z,5.93
2023-09-13T12:22:15.861Z,6.90
2023-09-13T12:24:52.817Z,5.80
2023-09-13T12:27:20.983Z,6.37
2023-09-13T12:29:50.463Z,7.20
2023-09-13T12:32:18.650Z,6.47
2023-09-13T12:34:46.783Z,6.00
2023-09-13T12:37:16.301Z,6.27
2023-09-13T12:39:45.070Z,6.10
2023-09-13T12:42:13.385Z,5.80
2023-09-13T12:44:42.100Z,5.43
2023-09-13T12:47:11.563Z,5.67
2023-09-13T12:49:40.172Z,6.50
2023-09-13T12:52:08.276Z,6.07
2023-09-13T12:54:36.443Z,5.10
2023-09-13T12:57:05.014Z,5.40
2023-09-13T12:59:44.963Z,5.70
2023-09-13T13:02:19.392Z,5.27
2023-09-13T13:04:47.850Z,5.67
2023-09-13T13:07:23.156Z,5.20
2023-09-13T13:09:54.850Z,5.40
2023-09-13T13:12:22.946Z,4.63
2023-09-13T13:14:51.856Z,5.47
2023-09-13T13:17:22.355Z,5.07
2023-09-13T13:19:56.889Z,3.93
2023-09-13T13:22:27.443Z,4.97
2023-09-13T13:24:55.744Z,5.53
2023-09-13T13:27:23.887Z,4.63
2023-09-13T13:29:52.913Z,5.07
2023-09-13T13:32:22.355Z,4.53
2023-09-13T13:34:50.932Z,5.57
2023-09-13T13:37:20.632Z,7.00
2023-09-13T13:39:48.682Z,7.13
2023-09-13T13:42:16.753Z,6.53
2023-09-13T13:44:44.757Z,8.70
2023-09-13T13:47:13.121Z,8.43
2023-09-13T13:49:42.533Z,8.10
2023-09-13T13:52:10.592Z,8.97
2023-09-13T13:54:38.751Z,7.23
2023-09-13T13:57:07.023Z,8.13
2023-09-13T13:59:35.332Z,9.80
2023-09-13T14:02:05.019Z,10.30
2023-09-13T14:04:34.191Z,9.23
2023-09-13T14:07:03.917Z,8.60
2023-09-13T14:09:32.190Z,9.73
2023-09-13T14:12:00.325Z,9.50
2023-09-13T14:14:29.850Z,9.33
2023-09-13T14:16:57.972Z,9.00
2023-09-13T14:19:26.077Z,8.33
2023-09-13T14:21:54.158Z,8.27
2023-09-13T14:24:23.628Z,8.60
2023-09-13T14:26:51.690Z,10.13
2023-09-13T14:29:19.652Z,8.73
2023-09-13T14:31:47.713Z,7.93
2023-09-13T14:34:15.862Z,8.27
2023-09-13T14:36:43.885Z,8.20
2023-09-13T14:39:11.992Z,9.20
2023-09-13T14:41:42.249Z,8.70
2023-09-13T14:44:10.564Z,8.73
2023-09-13T14:46:38.674Z,8.30
2023-09-13T14:49:06.997Z,7.83
2023-09-13T14:51:35.400Z,8.97
2023-09-13T14:54:04.760Z,7.13
2023-09-13T14:56:32.854Z,7.73
2023-09-13T14:59:02.247Z,8.30
2023-09-13T15:01:30.414Z,7.47
2023-09-13T15:03:58.482Z,8.40
2023-09-13T15:06:26.598Z,9.60
2023-09-13T15:08:57.250Z,7.60
2023-09-13T15:11:25.378Z,8.10
2023-09-13T15:13:53.334Z,8.40
2023-09-13T15:16:22.740Z,7.10
2023-09-13T15:18:51.545Z,8.33
2023-09-13T15:21:19.695Z,10.30
2023-09-13T15:23:47.704Z,7.33
2023-09-13T15:26:15.707Z,8.10
2023-09-13T15:28:43.965Z,7.30
2023-09-13T15:31:12.537Z,7.43
2023-09-13T15:33:42.475Z,8.33
2023-09-13T15:36:10.537Z,7.33
2023-09-13T15:38:49.284Z,7.07
2023-09-13T15:41:21.421Z,7.30
2023-09-13T15:43:49.526Z,7.27
2023-09-13T15:46:17.589Z,7.70
2023-09-13T15:48:48.217Z,7.03
2023-09-13T15:51:16.817Z,9.10
2023-09-13T15:53:45.087Z,8.33
2023-09-13T15:56:13.168Z,8.20
2023-09-13T15:58:42.768Z,8.20
2023-09-13T16:01:11.901Z,7.30
2023-09-13T16:03:40.107Z,7.57
2023-09-13T16:06:09.533Z,7.53
2023-09-13T16:08:37.668Z,6.93
2023-09-13T16:11:05.692Z,7.70
2023-09-13T16:13:33.755Z,7.80
2023-09-13T16:16:02.053Z,8.50
2023-09-13T16:18:30.200Z,9.80
2023-09-13T16:20:59.022Z,8.93
2023-09-13T16:23:28.611Z,8.90
2023-09-13T16:25:56.559Z,8.77
2023-09-13T16:28:24.862Z,9.40
2023-09-13T16:30:52.994Z,9.00
2023-09-13T16:33:21.210Z,8.50
2023-09-13T16:35:49.294Z,9.50
2023-09-13T16:38:17.277Z,9.63
2023-09-13T16:40:46.665Z,9.50
2023-09-13T16:43:14.778Z,8.60
2023-09-13T16:45:42.983Z,10.33
2023-09-13T16:48:23.475Z,7.30
2023-09-13T16:50:52.014Z,7.30
2023-09-13T16:53:21.363Z,7.07
2023-09-13T16:55:50.727Z,7.07
2023-09-13T16:58:18.791Z,6.60
2023-09-13T17:00:48.791Z,6.30
2023-09-13T17:03:17.177Z,6.60
2023-09-13T17:05:45.308Z,6.10
2023-09-13T17:08:13.307Z,7.00
2023-09-13T17:10:41.371Z,5.90
2023-09-13T17:13:20.604Z,7.00
2023-09-13T17:15:49.002Z,7.20
2023-09-13T17:18:17.378Z,7.07
2023-09-13T17:20:45.700Z,7.10
2023-09-13T17:23:13.802Z,7.20
2023-09-13T17:25:41.951Z,7.10
2023-09-13T17:28:11.343Z,6.20
2023-09-13T17:30:39.411Z,6.97
2023-09-13T17:33:07.468Z,7.73
2023-09-13T17:35:36.353Z,6.57
2023-09-13T17:38:05.467Z,5.87
2023-09-13T17:40:33.443Z,7.13
2023-09-13T17:43:02.993Z,5.67
2023-09-13T17:45:33.973Z,5.57
2023-09-13T17:48:02.041Z,5.60
2023-09-13T17:50:30.035Z,5.30
2023-09-13T17:52:58.074Z,5.30
2023-09-13T17:55:26.085Z,4.83
2023-09-13T17:57:54.116Z,5.10
2023-09-13T18:00:22.945Z,5.40
2023-09-13T18:02:53.226Z,3.83
2023-09-13T18:05:21.357Z,4.43
2023-09-13T18:07:50.180Z,4.70
2023-09-13T18:10:18.656Z,4.53
2023-09-13T18:12:48.297Z,4.20
2023-09-13T18:15:16.559Z,4.13
2023-09-13T18:17:54.449Z,4.90
2023-09-13T18:20:27.468Z,4.70
2023-09-13T18:22:55.617Z,4.23
2023-09-13T18:25:23.856Z,3.70
2023-09-13T18:27:51.852Z,4.40
2023-09-13T18:30:20.152Z,4.00
2023-09-13T18:32:48.203Z,4.43
2023-09-13T18:35:17.015Z,3.53
2023-09-13T18:37:46.472Z,4.10
2023-09-13T18:40:14.493Z,5.30
2023-09-13T18:42:42.524Z,4.20
2023-09-13T18:45:11.174Z,4.43
2023-09-13T18:47:39.156Z,3.87
2023-09-13T18:50:08.573Z,4.60
2023-09-13T18:52:36.694Z,3.73
2023-09-13T18:55:06.630Z,3.70
2023-09-13T18:57:34.682Z,4.50
2023-09-13T19:00:04.189Z,5.27
2023-09-13T19:02:32.292Z,4.70
2023-09-13T19:05:00.440Z,4.80
2023-09-13T19:07:28.503Z,3.87
2023-09-13T19:09:56.550Z,7.07
2023-09-13T19:12:26.142Z,5.87
2023-09-13T19:14:54.178Z,5.53
2023-09-13T19:17:22.261Z,4.00
2023-09-13T19:19:50.280Z,4.00
2023-09-13T19:22:18.242Z,3.97
2023-09-13T19:24:56.539Z,4.67
2023-09-13T19:27:27.209Z,4.47
2023-09-13T19:29:55.271Z,4.60
2023-09-13T19:32:23.304Z,4.67
2023-09-13T19:34:51.358Z,5.77
2023-09-13T19:37:19.473Z,5.33
2023-09-13T19:39:47.625Z,4.97
2023-09-13T19:42:15.754Z,5.70
2023-09-13T19:44:45.123Z,5.70
2023-09-13T19:47:13.998Z,5.80
2023-09-13T19:49:41.980Z,5.27
2023-09-13T19:52:10.017Z,5.77
2023-09-13T19:54:39.022Z,5.17
2023-09-13T19:57:08.285Z,6.33
2023-09-13T19:59:38.322Z,6.20
2023-09-13T20:02:08.144Z,6.13
2023-09-13T20:04:36.244Z,6.70
2023-09-13T20:07:04.349Z,6.90
2023-09-13T20:09:32.401Z,6.47
2023-09-13T20:12:04.840Z,6.97
2023-09-13T20:14:32.922Z,6.40
2023-09-13T20:17:00.940Z,6.87
2023-09-13T20:19:30.567Z,6.73
2023-09-13T20:21:58.638Z,8.03
2023-09-13T20:24:26.838Z,6.60
2023-09-13T20:26:55.154Z,6.50
2023-09-13T20:29:27.133Z,7.07
2023-09-13T20:31:55.270Z,7.00
2023-09-13T20:34:24.590Z,7.03
2023-09-13T20:36:54.030Z,7.37
2023-09-13T20:39:22.151Z,6.90
2023-09-13T20:41:50.229Z,6.63
2023-09-13T20:44:18.235Z,6.33
2023-09-13T20:46:47.225Z,5.67
2023-09-13T20:49:15.364Z,5.60
2023-09-13T20:51:43.431Z,6.33
2023-09-13T20:54:12.788Z,6.33
2023-09-13T20:56:40.735Z,6.30
2023-09-13T20:59:08.702Z,6.80
2023-09-13T21:01:36.754Z,6.70
2023-09-13T21:04:05.434Z,6.43
2023-09-13T21:06:33.495Z,7.30
2023-09-13T21:09:01.510Z,6.13
2023-09-13T21:11:30.850Z,6.60
2023-09-13T21:13:58.848Z,6.90
2023-09-13T21:16:26.918Z,6.50
2023-09-13T21:18:55.695Z,6.80
2023-09-13T21:21:23.775Z,6.90
2023-09-13T21:23:51.791Z,7.03
2023-09-13T21:26:19.763Z,8.03
2023-09-13T21:28:49.372Z,7.07
2023-09-13T21:31:17.801Z,6.80
2023-09-13T21:33:46.910Z,6.90
2023-09-13T21:36:15.825Z,7.90
2023-09-13T21:38:44.513Z,5.73
2023-09-13T21:41:12.864Z,6.53
2023-09-13T21:43:41.205Z,6.57
2023-09-13T21:46:10.647Z,6.60
2023-09-13T21:48:41.835Z,6.67
2023-09-13T21:51:11.755Z,6.63
2023-09-13T21:53:40.112Z,6.40
2023-09-13T21:56:09.670Z,7.87
2023-09-13T21:58:37.919Z,7.00
2023-09-13T22:01:06.080Z,6.67
2023-09-13T22:03:35.672Z,6.77
2023-09-13T22:06:03.949Z,7.57
2023-09-13T22:08:32.496Z,7.50
2023-09-13T22:11:05.477Z,7.10
2023-09-13T22:13:33.696Z,7.60
2023-09-13T22:16:01.937Z,8.10
2023-09-13T22:18:30.534Z,7.73
2023-09-13T22:21:03.010Z,7.40
2023-09-13T22:23:32.578Z,8.70
2023-09-13T22:26:00.854Z,7.50
2023-09-13T22:28:29.255Z,7.83
2023-09-13T22:31:01.178Z,9.10
2023-09-13T22:33:31.026Z,9.10
2023-09-13T22:36:04.926Z,8.13
2023-09-13T22:38:33.057Z,9.63
2023-09-13T22:41:02.556Z,9.00
2023-09-13T22:43:30.649Z,9.10
2023-09-13T22:45:58.818Z,9.70
2023-09-13T22:48:27.115Z,8.13
2023-09-13T22:50:55.395Z,9.13
2023-09-13T22:53:24.867Z,9.30
2023-09-13T22:55:53.900Z,9.60
2023-09-13T22:58:22.386Z,9.87
2023-09-13T23:00:50.498Z,10.40
2023-09-13T23:03:30.198Z,10.17
2023-09-13T23:06:06.861Z,9.83
2023-09-13T23:08:38.898Z,12.00
2023-09-13T23:11:07.385Z,9.27
2023-09-13T23:13:35.897Z,10.93
2023-09-13T23:16:05.789Z,10.73
2023-09-13T23:18:37.135Z,10.60
2023-09-13T23:21:05.612Z,10.57
2023-09-13T23:23:34.359Z,10.23
2023-09-13T23:26:05.656Z,11.23
2023-09-13T23:28:34.888Z,9.30
2023-09-13T23:31:07.487Z,10.57
2023-09-13T23:33:36.594Z,10.10
2023-09-13T23:36:05.663Z,11.05
2023-09-13T23:38:34.125Z,11.30
2023-09-13T23:41:06.874Z,11.00
2023-09-13T23:43:35.348Z,11.50
2023-09-13T23:46:04.811Z,10.93
2023-09-13T23:48:33.908Z,10.03
2023-09-13T23:51:04.122Z,11.13
2023-09-13T23:53:32.230Z,11.07
2023-09-13T23:56:00.615Z,11.50
2023-09-13T23:58:30.168Z,12.03
